createdAt,value
2018-12-03T05:00:29.157Z,10.90
2018-12-03T05:01:29.134Z,10.98
2018-12-03T05:02:29.123Z,11.11
2018-12-03T05:03:29.151Z,11.19
2018-12-03T05:04:29.112Z,11.24
2018-12-03T05:05:29.090Z,11.42
2018-12-03T05:06:29.094Z,11.44
2018-12-03T05:07:29.073Z,11.39
2018-12-03T05:08:29.070Z,11.41
2018-12-03T05:09:29.046Z,11.24
2018-12-03T05:10:29.035Z,11.28
2018-12-03T05:11:29.021Z,11.20
2018-12-03T05:12:29.008Z,11.16
2018-12-03T05:13:29.031Z,11.19
2018-12-03T05:14:28.986Z,11.17
2018-12-03T05:15:28.975Z,11.13
2018-12-03T05:16:28.966Z,11.11
2018-12-03T05:17:28.956Z,11.03
2018-12-03T05:18:28.961Z,11.05
2018-12-03T05:19:28.943Z,11.03
2018-12-03T05:20:28.925Z,10.95
2018-12-03T05:21:28.912Z,10.90
2018-12-03T05:22:28.901Z,10.90
2018-12-03T05:23:28.902Z,10.95
2018-12-03T05:24:28.882Z,10.91
2018-12-03T05:25:28.866Z,10.87
2018-12-03T05:26:28.855Z,10.87
2018-12-03T05:27:28.846Z,10.76
2018-12-03T05:28:28.853Z,10.72
2018-12-03T05:29:28.821Z,10.66
2018-12-03T05:30:28.813Z,10.68
2018-12-03T05:31:28.802Z,10.49
2018-12-03T05:32:28.788Z,10.51
2018-12-03T05:33:28.792Z,10.44
2018-12-03T05:34:28.769Z,10.34
2018-12-03T05:35:28.760Z,10.36
2018-12-03T05:36:28.747Z,10.36
2018-12-03T05:37:28.737Z,10.31
2018-12-03T05:38:28.737Z,10.26
2018-12-03T05:39:28.712Z,10.17
2018-12-03T05:40:28.702Z,10.14
2018-12-03T05:41:28.694Z,10.14
2018-12-03T05:42:28.679Z,10.13
2018-12-03T05:43:28.688Z,10.16
2018-12-03T05:44:28.656Z,10.11
2018-12-03T05:45:28.652Z,10.22
2018-12-03T05:46:28.640Z,10.18
2018-12-03T05:47:28.650Z,10.18
2018-12-03T05:48:28.628Z,10.24
2018-12-03T05:49:28.605Z,10.18
2018-12-03T05:50:28.595Z,10.09
2018-12-03T05:51:28.586Z,10.18
2018-12-03T05:52:28.587Z,10.04
2018-12-03T05:53:28.577Z,10.16
2018-12-03T05:54:28.549Z,10.14
2018-12-03T05:55:28.548Z,10.13
2018-12-03T05:56:28.534Z,10.10
2018-12-03T05:57:28.519Z,10.02
2018-12-03T05:58:28.536Z,10.04
2018-12-03T05:59:28.496Z,10.11
2018-12-03T06:00:28.484Z,10.16
2018-12-03T06:01:28.474Z,10.02
2018-12-03T06:02:28.477Z,9.98
2018-12-03T06:03:28.464Z,10.01
2018-12-03T06:04:28.440Z,10.10
2018-12-03T06:05:28.431Z,10.06
2018-12-03T06:06:28.428Z,10.18
2018-12-03T06:07:28.409Z,10.13
2018-12-03T06:08:28.419Z,10.16
2018-12-03T06:09:28.387Z,10.18
2018-12-03T06:10:28.374Z,10.11
2018-12-03T06:11:28.375Z,10.20
2018-12-03T06:12:28.358Z,10.13
2018-12-03T06:13:28.355Z,10.11
2018-12-03T06:14:28.329Z,10.14
2018-12-03T06:15:28.319Z,10.07
2018-12-03T06:16:28.311Z,10.17
2018-12-03T06:17:28.306Z,10.07
2018-12-03T06:18:28.303Z,10.10
2018-12-03T06:19:28.277Z,10.16
2018-12-03T06:20:28.268Z,10.20
2018-12-03T06:21:28.257Z,10.25
2018-12-03T06:22:28.244Z,10.51
2018-12-03T06:23:28.274Z,10.57
2018-12-03T06:24:28.223Z,10.69
2018-12-03T06:25:28.214Z,10.66
2018-12-03T06:26:28.204Z,10.63
2018-12-03T06:27:28.192Z,10.70
2018-12-03T06:28:28.189Z,10.76
2018-12-03T06:29:28.182Z,10.78
2018-12-03T06:30:28.158Z,10.73
2018-12-03T06:31:28.151Z,10.73
2018-12-03T06:32:28.136Z,10.76
2018-12-03T06:33:28.144Z,10.81
2018-12-03T06:34:28.128Z,10.95
2018-12-03T06:35:28.107Z,10.94
2018-12-03T06:36:28.091Z,10.91
2018-12-03T06:37:28.079Z,10.94
2018-12-03T06:38:28.069Z,10.86
2018-12-03T06:39:28.075Z,10.91
2018-12-03T06:40:28.052Z,10.88
2018-12-03T06:41:28.055Z,10.91
2018-12-03T06:42:28.030Z,10.86
2018-12-03T06:43:28.017Z,10.91
2018-12-03T06:44:28.017Z,10.80
2018-12-03T06:45:27.995Z,10.78
2018-12-03T06:46:28.031Z,10.73
2018-12-03T06:47:27.973Z,10.86
2018-12-03T06:48:27.966Z,10.95
2018-12-03T06:49:27.960Z,10.88
2018-12-03T06:50:27.940Z,10.90
2018-12-03T06:51:27.927Z,11.01
2018-12-03T06:52:27.918Z,11.09
2018-12-03T06:53:27.905Z,11.08
2018-12-03T06:54:27.905Z,11.08
2018-12-03T06:55:27.882Z,11.09
2018-12-03T06:56:27.870Z,11.03
2018-12-03T06:57:27.863Z,11.12
2018-12-03T06:58:27.852Z,11.12
2018-12-03T06:59:27.862Z,11.09
2018-12-03T07:00:27.824Z,11.09
2018-12-03T07:01:27.816Z,11.09
2018-12-03T07:02:27.807Z,11.17
2018-12-03T07:03:27.795Z,11.13
2018-12-03T07:04:27.795Z,11.12
2018-12-03T07:05:27.772Z,11.24
2018-12-03T07:06:27.758Z,11.16
2018-12-03T07:07:27.750Z,11.13
2018-12-03T07:08:27.737Z,11.23
2018-12-03T07:09:27.748Z,11.19
2018-12-03T07:10:27.717Z,11.21
2018-12-03T07:11:27.705Z,11.26
2018-12-03T07:12:27.701Z,11.31
2018-12-03T07:13:27.688Z,11.26
2018-12-03T07:14:27.690Z,11.12
2018-12-03T07:15:27.666Z,11.19
2018-12-03T07:16:27.654Z,11.24
2018-12-03T07:17:27.642Z,11.13
2018-12-03T07:18:27.636Z,11.24
2018-12-03T07:19:27.636Z,11.24
2018-12-03T07:20:27.611Z,11.31
2018-12-03T07:21:27.605Z,11.23
2018-12-03T07:22:27.588Z,11.16
2018-12-03T07:23:27.578Z,11.24
2018-12-03T07:24:27.579Z,11.13
2018-12-03T07:25:27.554Z,11.17
2018-12-03T07:26:27.545Z,11.20
2018-12-03T07:27:27.531Z,11.13
2018-12-03T07:28:27.522Z,11.06
2018-12-03T07:29:27.525Z,11.06
2018-12-03T07:30:27.499Z,11.06
2018-12-03T07:31:27.487Z,11.09
2018-12-03T07:32:27.477Z,10.94
2018-12-03T07:33:27.466Z,10.98
2018-12-03T07:34:27.467Z,10.86
2018-12-03T07:35:27.447Z,10.83
2018-12-03T07:36:27.462Z,10.86
2018-12-03T07:37:27.419Z,10.81
2018-12-03T07:38:27.410Z,10.80
2018-12-03T07:39:27.417Z,10.86
2018-12-03T07:40:27.386Z,10.99
2018-12-03T07:41:27.395Z,10.88
2018-12-03T07:42:27.368Z,10.98
2018-12-03T07:43:27.357Z,10.88
2018-12-03T07:44:27.358Z,10.94
2018-12-03T07:45:27.333Z,10.81
2018-12-03T07:46:27.324Z,10.72
2018-12-03T07:47:27.310Z,10.73
2018-12-03T07:48:27.299Z,10.83
2018-12-03T07:49:27.310Z,10.80
2018-12-03T07:50:27.277Z,10.75
2018-12-03T07:51:27.265Z,10.70
2018-12-03T07:52:27.255Z,10.80
2018-12-03T07:53:27.245Z,10.80
2018-12-03T07:54:27.248Z,10.86
2018-12-03T07:55:27.273Z,10.90
2018-12-03T07:56:27.210Z,10.94
2018-12-03T07:57:27.199Z,10.90
2018-12-03T07:58:27.187Z,10.93
2018-12-03T07:59:27.187Z,10.93
2018-12-03T08:00:27.179Z,10.94
2018-12-03T08:01:27.151Z,10.87
2018-12-03T08:02:27.139Z,10.90
2018-12-03T08:03:27.127Z,10.88
2018-12-03T08:04:27.134Z,10.81
2018-12-03T08:05:27.103Z,10.88
2018-12-03T08:06:27.112Z,10.90
2018-12-03T08:07:27.087Z,10.84
2018-12-03T08:08:27.075Z,10.81
2018-12-03T08:09:27.066Z,10.72
2018-12-03T08:10:27.053Z,10.70
2018-12-03T08:11:27.040Z,10.78
2018-12-03T08:12:27.029Z,10.76
2018-12-03T08:13:27.019Z,10.78
2018-12-03T08:14:27.019Z,10.73
2018-12-03T08:15:27.000Z,10.93
2018-12-03T08:16:26.986Z,10.88
2018-12-03T08:17:26.973Z,10.91
2018-12-03T08:18:26.966Z,10.94
2018-12-03T08:19:27.008Z,10.90
2018-12-03T08:20:26.944Z,10.90
2018-12-03T08:21:26.932Z,10.87
2018-12-03T08:22:26.917Z,10.84
2018-12-03T08:23:26.904Z,10.83
2018-12-03T08:24:26.910Z,10.73
2018-12-03T08:25:26.893Z,10.84
2018-12-03T08:26:26.872Z,10.88
2018-12-03T08:27:26.869Z,10.93
2018-12-03T08:28:26.850Z,10.93
2018-12-03T08:29:26.870Z,10.93
2018-12-03T08:30:26.832Z,10.93
2018-12-03T08:31:26.820Z,10.87
2018-12-03T08:32:27.407Z,10.87
2018-12-03T08:33:26.797Z,10.88
2018-12-03T08:34:26.783Z,10.83
2018-12-03T08:35:26.786Z,10.83
2018-12-03T08:36:26.762Z,10.91
2018-12-03T08:37:26.754Z,10.91
2018-12-03T08:38:26.742Z,11.02
2018-12-03T08:39:26.733Z,11.11
2018-12-03T08:40:26.736Z,11.01
2018-12-03T08:41:26.708Z,11.06
2018-12-03T08:42:26.698Z,11.13
2018-12-03T08:43:26.690Z,11.24
2018-12-03T08:44:26.681Z,11.31
2018-12-03T08:45:26.669Z,11.30
2018-12-03T08:46:26.655Z,11.44
2018-12-03T08:47:26.642Z,11.56
2018-12-03T08:48:26.633Z,11.69
2018-12-03T08:49:26.620Z,11.72
2018-12-03T08:50:26.625Z,11.64
2018-12-03T08:51:26.598Z,11.64
2018-12-03T08:52:26.595Z,11.75
2018-12-03T08:53:26.576Z,11.69
2018-12-03T08:54:26.564Z,11.79
2018-12-03T08:55:26.570Z,11.70
2018-12-03T08:56:26.541Z,11.60
2018-12-03T08:57:26.531Z,11.48
2018-12-03T08:58:26.539Z,11.49
2018-12-03T08:59:26.517Z,11.45
2018-12-03T09:00:26.516Z,11.46
2018-12-03T09:01:26.485Z,11.44
2018-12-03T09:02:26.474Z,11.56
2018-12-03T09:03:26.463Z,11.44
2018-12-03T09:04:26.455Z,11.54
2018-12-03T09:05:26.456Z,11.51
2018-12-03T09:06:26.433Z,11.57
2018-12-03T09:07:26.422Z,11.53
2018-12-03T09:08:26.409Z,11.57
2018-12-03T09:09:26.401Z,11.64
2018-12-03T09:10:26.395Z,11.56
2018-12-03T09:11:26.389Z,11.53
2018-12-03T09:12:26.363Z,11.57
2018-12-03T09:13:26.352Z,11.62
2018-12-03T09:14:26.344Z,11.59
2018-12-03T09:15:26.341Z,11.62
2018-12-03T09:16:26.317Z,11.56
2018-12-03T09:17:26.310Z,11.60
2018-12-03T09:18:26.294Z,11.54
2018-12-03T09:19:26.283Z,11.51
2018-12-03T09:20:26.289Z,11.53
2018-12-03T09:21:26.263Z,11.62
2018-12-03T09:22:26.258Z,11.63
2018-12-03T09:23:26.243Z,11.62
2018-12-03T09:24:26.231Z,11.60
2018-12-03T09:25:26.231Z,11.60
2018-12-03T09:26:26.202Z,11.53
2018-12-03T09:27:26.181Z,11.57
2018-12-03T09:28:26.182Z,11.64
2018-12-03T09:29:26.171Z,11.67
2018-12-03T09:30:27.889Z,11.74
2018-12-03T09:31:26.149Z,11.70
2018-12-03T09:32:26.137Z,11.72
2018-12-03T09:33:26.125Z,11.59
2018-12-03T09:34:26.114Z,11.70
2018-12-03T09:35:26.115Z,11.63
2018-12-03T09:36:26.091Z,11.63
2018-12-03T09:37:26.080Z,11.60
2018-12-03T09:38:26.068Z,11.66
2018-12-03T09:39:26.058Z,11.77
2018-12-03T09:40:26.058Z,11.62
2018-12-03T09:41:26.035Z,11.70
2018-12-03T09:42:26.024Z,11.67
2018-12-03T09:43:26.012Z,11.66
2018-12-03T09:44:25.998Z,11.62
2018-12-03T09:45:26.007Z,11.63
2018-12-03T09:46:25.984Z,11.74
2018-12-03T09:47:25.976Z,11.70
2018-12-03T09:48:25.956Z,11.84
2018-12-03T09:49:25.946Z,11.85
2018-12-03T09:50:25.949Z,11.94
2018-12-03T09:51:25.923Z,11.98
2018-12-03T09:52:25.912Z,11.82
2018-12-03T09:53:25.923Z,11.87
2018-12-03T09:54:25.890Z,11.94
2018-12-03T09:55:25.893Z,12.08
2018-12-03T09:56:25.870Z,12.04
2018-12-03T09:57:25.855Z,12.12
2018-12-03T09:58:25.845Z,12.18
2018-12-03T09:59:25.873Z,12.21
2018-12-03T10:00:25.839Z,12.19
2018-12-03T10:01:25.810Z,12.19
2018-12-03T10:02:25.799Z,12.18
2018-12-03T10:03:25.789Z,12.21
2018-12-03T10:04:25.783Z,12.21
2018-12-03T10:05:25.782Z,12.26
2018-12-03T10:06:25.755Z,12.19
2018-12-03T10:07:25.744Z,12.11
2018-12-03T10:08:25.733Z,12.05
2018-12-03T10:09:25.722Z,12.05
2018-12-03T10:10:25.730Z,12.07
2018-12-03T10:11:25.700Z,12.07
2018-12-03T10:12:25.688Z,12.13
2018-12-03T10:13:25.679Z,12.13
2018-12-03T10:14:25.669Z,12.21
2018-12-03T10:15:25.663Z,12.21
2018-12-03T10:16:25.638Z,12.23
2018-12-03T10:17:25.626Z,12.23
2018-12-03T10:18:25.616Z,12.21
2018-12-03T10:19:25.605Z,12.23
2018-12-03T10:20:25.605Z,12.22
2018-12-03T10:21:25.582Z,12.18
2018-12-03T10:22:25.574Z,12.22
2018-12-03T10:23:25.560Z,12.19
2018-12-03T10:24:25.549Z,12.22
2018-12-03T10:25:25.547Z,12.33
2018-12-03T10:26:25.524Z,12.44
2018-12-03T10:27:25.515Z,12.44
2018-12-03T10:28:25.508Z,12.55
2018-12-03T10:29:25.492Z,12.52
2018-12-03T10:30:25.487Z,12.58
2018-12-03T10:31:25.469Z,12.54
2018-12-03T10:32:25.457Z,12.66
2018-12-03T10:33:25.445Z,12.67
2018-12-03T10:34:25.436Z,12.76
2018-12-03T10:35:25.458Z,12.77
2018-12-03T10:36:25.416Z,12.88
2018-12-03T10:37:25.395Z,12.85
2018-12-03T10:38:25.390Z,12.89
2018-12-03T10:39:26.986Z,12.89
2018-12-03T10:40:25.352Z,12.87
2018-12-03T10:41:25.378Z,12.85
2018-12-03T10:42:25.341Z,12.89
2018-12-03T10:43:25.329Z,12.79
2018-12-03T10:44:25.326Z,12.74
2018-12-03T10:45:26.221Z,12.71
2018-12-03T10:46:25.313Z,12.69
2018-12-03T10:47:25.286Z,12.73
2018-12-03T10:48:25.274Z,12.77
2018-12-03T10:49:25.261Z,12.92
2018-12-03T10:50:25.250Z,12.88
2018-12-03T10:51:25.258Z,12.88
2018-12-03T10:52:25.227Z,12.95
2018-12-03T10:53:25.220Z,12.91
2018-12-03T10:54:25.207Z,12.92
2018-12-03T10:55:25.198Z,12.88
2018-12-03T10:56:25.195Z,12.85
2018-12-03T10:57:25.175Z,12.88
2018-12-03T10:58:25.169Z,12.74
2018-12-03T10:59:25.148Z,12.76
2018-12-03T11:00:25.134Z,12.71
2018-12-03T11:01:25.138Z,12.77
2018-12-03T11:02:25.116Z,12.76
2018-12-03T11:03:25.099Z,12.69
2018-12-03T11:04:25.088Z,12.71
2018-12-03T11:05:25.080Z,12.62
2018-12-03T11:06:25.079Z,12.71
2018-12-03T11:07:25.054Z,12.74
2018-12-03T11:08:27.139Z,12.84
2018-12-03T11:09:25.393Z,12.79
2018-12-03T11:10:25.021Z,12.76
2018-12-03T11:11:25.025Z,12.73
2018-12-03T11:12:25.354Z,12.59
2018-12-03T11:13:25.039Z,12.55
2018-12-03T11:14:24.976Z,12.55
2018-12-03T11:15:24.962Z,12.44
2018-12-03T11:16:24.975Z,12.46
2018-12-03T11:17:24.938Z,12.44
2018-12-03T11:18:24.926Z,12.48
2018-12-03T11:19:24.917Z,12.37
2018-12-03T11:20:24.900Z,12.40
2018-12-03T11:21:24.917Z,12.22
2018-12-03T11:22:24.882Z,12.19
2018-12-03T11:23:24.870Z,12.23
2018-12-03T11:24:24.867Z,12.15
2018-12-03T11:25:24.865Z,12.19
2018-12-03T11:26:24.865Z,12.16
2018-12-03T11:27:25.287Z,12.25
2018-12-03T11:28:24.814Z,12.19
2018-12-03T11:29:24.792Z,12.19
2018-12-03T11:30:24.791Z,12.34
2018-12-03T11:31:24.794Z,12.38
2018-12-03T11:32:24.769Z,12.38
2018-12-03T11:33:24.759Z,12.40
2018-12-03T11:34:24.746Z,12.38
2018-12-03T11:35:24.735Z,12.31
2018-12-03T11:36:24.737Z,12.41
2018-12-03T11:37:24.709Z,12.34
2018-12-03T11:38:24.700Z,12.31
2018-12-03T11:39:24.691Z,12.33
2018-12-03T11:40:24.677Z,12.36
2018-12-03T11:41:24.682Z,12.37
2018-12-03T11:42:24.652Z,12.40
2018-12-03T11:43:24.644Z,12.30
2018-12-03T11:44:24.629Z,12.33
2018-12-03T11:45:24.619Z,12.36
2018-12-03T11:46:24.623Z,12.34
2018-12-03T11:47:24.599Z,12.36
2018-12-03T11:48:24.577Z,12.34
2018-12-03T11:49:24.573Z,12.36
2018-12-03T11:50:24.567Z,12.38
2018-12-03T11:51:24.567Z,12.44
2018-12-03T11:52:24.538Z,12.41
2018-12-03T11:53:24.526Z,12.44
2018-12-03T11:54:24.522Z,12.44
2018-12-03T11:55:24.502Z,12.34
2018-12-03T11:56:24.506Z,12.36
2018-12-03T11:57:24.478Z,12.19
2018-12-03T11:58:24.468Z,12.23
2018-12-03T11:59:24.456Z,12.16
2018-12-03T12:00:24.445Z,12.22
2018-12-03T12:01:24.446Z,12.21
2018-12-03T12:02:24.424Z,12.34
2018-12-03T12:03:24.419Z,12.22
2018-12-03T12:04:24.400Z,12.16
2018-12-03T12:05:24.391Z,12.30
2018-12-03T12:06:24.390Z,12.15
2018-12-03T12:07:24.379Z,12.19
2018-12-03T12:08:24.359Z,12.16
2018-12-03T12:09:24.344Z,12.18
2018-12-03T12:10:24.336Z,12.19
2018-12-03T12:11:24.338Z,12.19
2018-12-03T12:12:24.310Z,12.16
2018-12-03T12:13:24.299Z,12.18
2018-12-03T12:14:24.287Z,12.12
2018-12-03T12:15:24.281Z,12.12
2018-12-03T12:16:26.378Z,12.11
2018-12-03T12:17:24.255Z,12.08
2018-12-03T12:18:24.244Z,12.11
2018-12-03T12:19:24.232Z,12.11
2018-12-03T12:20:24.221Z,12.07
2018-12-03T12:21:24.222Z,11.96
2018-12-03T12:22:24.385Z,12.04
2018-12-03T12:23:24.187Z,11.88
2018-12-03T12:24:24.177Z,11.94
2018-12-03T12:25:24.161Z,11.98
2018-12-03T12:26:24.167Z,11.84
2018-12-03T12:27:24.137Z,11.87
2018-12-03T12:28:24.127Z,11.84
2018-12-03T12:29:24.115Z,11.77
2018-12-03T12:30:24.104Z,11.75
2018-12-03T12:31:24.125Z,11.81
2018-12-03T12:32:24.087Z,11.77
2018-12-03T12:33:24.070Z,11.82
2018-12-03T12:34:24.059Z,11.74
2018-12-03T12:35:24.054Z,11.79
2018-12-03T12:36:24.053Z,11.66
2018-12-03T12:37:24.031Z,11.66
2018-12-03T12:38:24.013Z,11.69
2018-12-03T12:39:24.002Z,11.66
2018-12-03T12:40:23.991Z,11.70
2018-12-03T12:41:23.980Z,11.75
2018-12-03T12:42:23.980Z,11.66
2018-12-03T12:43:23.953Z,11.60
2018-12-03T12:44:23.946Z,11.57
2018-12-03T12:45:23.937Z,11.60
2018-12-03T12:46:23.925Z,11.64
2018-12-03T12:47:23.928Z,11.59
2018-12-03T12:48:23.888Z,11.62
2018-12-03T12:49:23.894Z,11.53
2018-12-03T12:50:23.878Z,11.56
2018-12-03T12:51:23.867Z,11.45
2018-12-03T12:52:23.867Z,11.46
2018-12-03T12:53:23.843Z,11.54
2018-12-03T12:54:23.832Z,11.42
2018-12-03T12:55:23.822Z,11.59
2018-12-03T12:56:23.810Z,11.62
2018-12-03T12:57:23.803Z,11.49
2018-12-03T12:58:23.787Z,11.45
2018-12-03T12:59:23.775Z,11.53
2018-12-03T13:00:23.767Z,11.60
2018-12-03T13:01:23.758Z,11.49
2018-12-03T13:02:23.754Z,11.56
2018-12-03T13:03:23.734Z,11.49
2018-12-03T13:04:23.719Z,11.49
2018-12-03T13:05:28.569Z,11.59
2018-12-03T13:06:24.699Z,11.59
2018-12-03T13:07:23.698Z,11.49
2018-12-03T13:08:23.683Z,11.56
2018-12-03T13:09:23.664Z,11.56
2018-12-03T13:10:23.656Z,11.59
2018-12-03T13:11:23.667Z,11.57
2018-12-03T13:22:34.605Z,11.45
2018-12-03T13:23:34.555Z,11.44
2018-12-03T13:24:34.544Z,11.44
2018-12-03T13:25:37.473Z,11.44
2018-12-03T13:26:34.520Z,11.35
2018-12-03T13:27:34.529Z,11.33
2018-12-03T13:28:34.497Z,11.33
2018-12-03T13:29:34.619Z,11.24
2018-12-03T13:30:34.471Z,11.21
2018-12-03T13:31:34.464Z,11.23
2018-12-03T13:32:34.465Z,11.30
2018-12-03T13:33:34.437Z,11.31
2018-12-03T13:34:34.588Z,11.26
2018-12-03T13:35:34.414Z,11.24
2018-12-03T13:36:34.406Z,11.26
2018-12-03T13:37:34.407Z,11.23
2018-12-03T13:38:34.376Z,11.21
2018-12-03T13:39:34.370Z,11.26
2018-12-03T13:40:34.358Z,11.26
2018-12-03T13:41:34.352Z,11.24
2018-12-03T13:42:34.356Z,11.20
2018-12-03T13:43:34.376Z,11.12
2018-12-03T13:44:34.308Z,11.19
2018-12-03T13:45:34.298Z,11.24
2018-12-03T13:46:34.298Z,11.13
2018-12-03T13:47:34.288Z,11.17
2018-12-03T13:48:34.264Z,11.17
2018-12-03T13:49:34.253Z,11.21
2018-12-03T13:50:34.243Z,11.16
2018-12-03T13:51:34.234Z,11.20
2018-12-03T13:52:34.233Z,11.13
2018-12-03T13:53:34.213Z,11.11
2018-12-03T13:54:34.199Z,11.08
2018-12-03T13:55:34.192Z,11.02
2018-12-03T13:56:34.175Z,11.06
2018-12-03T13:57:36.286Z,11.13
2018-12-03T13:58:34.147Z,11.03
2018-12-03T13:59:34.138Z,11.06
2018-12-03T14:00:34.125Z,11.06
2018-12-03T14:01:34.119Z,10.98
2018-12-03T14:02:34.126Z,10.98
2018-12-03T14:03:34.090Z,10.98
2018-12-03T14:04:34.287Z,10.98
2018-12-03T14:05:34.069Z,10.91
2018-12-03T14:06:34.057Z,10.94
2018-12-03T14:07:34.058Z,10.91
2018-12-03T14:08:34.035Z,10.78
2018-12-03T14:09:34.025Z,10.78
2018-12-03T14:10:34.011Z,10.78
2018-12-03T14:11:34.000Z,10.80
2018-12-03T14:12:33.997Z,10.70
2018-12-03T14:13:33.982Z,10.73
2018-12-03T14:14:33.963Z,10.76
2018-12-03T14:15:33.952Z,10.81
2018-12-03T14:16:33.938Z,10.80
2018-12-03T14:17:33.951Z,10.83
2018-12-03T14:18:33.917Z,10.76
2018-12-03T14:19:33.907Z,10.72
2018-12-03T14:20:33.895Z,10.65
2018-12-03T14:21:33.880Z,10.78
2018-12-03T14:22:33.884Z,10.70
2018-12-03T14:23:33.861Z,10.76
2018-12-03T14:24:33.854Z,10.66
2018-12-03T14:25:33.841Z,10.68
2018-12-03T14:26:33.827Z,10.69
2018-12-03T14:27:33.829Z,10.66
2018-12-03T14:28:33.812Z,10.73
2018-12-03T14:29:33.798Z,10.73
2018-12-03T14:30:33.782Z,10.70
2018-12-03T14:31:33.771Z,10.69
2018-12-03T14:32:33.777Z,10.72
2018-12-03T14:33:33.748Z,10.70
2018-12-03T14:34:33.742Z,10.66
2018-12-03T14:35:33.735Z,10.76
2018-12-03T14:36:33.715Z,10.76
2018-12-03T14:37:33.719Z,10.73
2018-12-03T14:38:33.692Z,10.68
2018-12-03T14:39:33.680Z,10.69
2018-12-03T14:40:33.671Z,10.72
2018-12-03T14:41:33.660Z,10.66
2018-12-03T14:42:33.661Z,10.68
2018-12-03T14:43:33.631Z,10.69
2018-12-03T14:44:33.621Z,10.68
2018-12-03T14:45:33.611Z,10.55
2018-12-03T14:46:33.598Z,10.60
2018-12-03T14:47:33.599Z,10.54
2018-12-03T14:48:33.577Z,10.60
2018-12-03T14:49:33.570Z,10.62
2018-12-03T14:50:33.552Z,10.63
2018-12-03T14:51:33.549Z,10.54
2018-12-03T14:52:33.548Z,10.58
2018-12-03T14:53:33.518Z,10.55
2018-12-03T14:54:33.505Z,10.49
2018-12-03T14:55:33.492Z,10.43
2018-12-03T14:56:33.482Z,10.54
2018-12-03T14:57:33.484Z,10.51
2018-12-03T14:58:33.460Z,10.49
2018-12-03T14:59:33.449Z,10.58
2018-12-03T15:00:33.435Z,10.54
2018-12-03T15:03:15.920Z,10.47
2018-12-03T15:03:43.125Z,10.47
2018-12-03T15:04:43.111Z,10.49
2018-12-03T15:05:43.102Z,10.43
2018-12-03T15:06:43.097Z,10.52
2018-12-03T15:07:43.086Z,10.49
2018-12-03T15:08:43.067Z,10.46
2018-12-03T15:09:43.055Z,10.44
2018-12-03T15:10:43.046Z,10.26
2018-12-03T15:11:43.032Z,10.39
2018-12-03T15:12:43.036Z,10.46
2018-12-03T15:13:43.010Z,10.32
2018-12-03T15:14:42.999Z,10.46
2018-12-03T15:15:42.985Z,10.35
2018-12-03T15:16:42.972Z,10.34
2018-12-03T15:17:42.974Z,10.28
2018-12-03T15:18:42.949Z,10.35
2018-12-03T15:19:42.938Z,10.35
2018-12-03T15:20:42.929Z,10.35
2018-12-03T15:21:42.919Z,10.34
2018-12-03T15:22:42.917Z,10.35
2018-12-03T15:23:42.895Z,10.38
2018-12-03T15:24:42.882Z,10.36
2018-12-03T15:25:42.871Z,10.42
2018-12-03T15:26:42.920Z,10.42
2018-12-03T15:27:42.907Z,10.43
2018-12-03T15:28:42.973Z,10.47
2018-12-03T15:29:42.830Z,10.49
2018-12-03T15:30:42.814Z,10.49
2018-12-03T15:31:42.804Z,10.54
2018-12-03T15:32:42.788Z,10.55
2018-12-03T15:33:42.793Z,10.54
2018-12-03T15:34:42.779Z,10.57
2018-12-03T15:35:42.755Z,10.46
2018-12-03T15:36:42.743Z,10.51
2018-12-03T15:37:42.736Z,10.54
2018-12-03T15:38:42.736Z,10.60
2018-12-03T15:39:42.710Z,10.63
2018-12-03T15:40:42.702Z,10.51
2018-12-03T15:41:42.686Z,10.47
2018-12-03T15:42:42.676Z,10.51
2018-12-03T15:43:42.676Z,10.58
2018-12-03T15:44:42.654Z,10.51
2018-12-03T15:45:42.641Z,10.57
2018-12-03T15:46:43.790Z,10.51
2018-12-03T15:47:42.617Z,10.46
2018-12-03T15:48:42.621Z,10.49
2018-12-03T15:49:42.592Z,10.51
2018-12-03T15:50:42.603Z,10.44
2018-12-03T15:51:42.570Z,10.38
2018-12-03T15:52:42.566Z,10.42
2018-12-03T15:53:43.382Z,10.26
2018-12-03T15:54:42.528Z,10.42
2018-12-03T15:55:42.525Z,10.36
2018-12-03T15:56:42.520Z,10.34
2018-12-03T15:57:42.507Z,10.36
2018-12-03T15:58:42.509Z,10.36
2018-12-03T15:59:42.481Z,10.31
2018-12-03T16:00:42.464Z,10.36
2018-12-03T16:01:42.454Z,10.31
2018-12-03T16:02:42.442Z,10.36
2018-12-03T16:03:42.450Z,10.35
2018-12-03T16:04:42.420Z,10.35
2018-12-03T16:05:42.440Z,10.42
2018-12-03T16:06:42.398Z,10.43
2018-12-03T16:07:42.387Z,10.44
2018-12-03T16:08:42.390Z,10.42
2018-12-03T16:09:42.363Z,10.38
2018-12-03T16:10:42.356Z,10.36
2018-12-03T16:11:42.341Z,10.29
2018-12-03T16:12:42.331Z,10.35
2018-12-03T16:13:42.335Z,10.31
2018-12-03T16:14:42.308Z,10.39
2018-12-03T16:15:42.296Z,10.31
2018-12-03T16:16:42.284Z,10.44
2018-12-03T16:17:42.273Z,10.47
2018-12-03T16:18:42.274Z,10.46
2018-12-03T16:19:42.250Z,10.36
2018-12-03T16:20:42.241Z,10.49
2018-12-03T16:21:42.229Z,10.39
2018-12-03T16:22:42.256Z,10.51
2018-12-03T16:23:42.219Z,10.34
2018-12-03T16:24:42.193Z,10.52
2018-12-03T16:25:42.189Z,10.60
2018-12-03T16:26:42.168Z,10.68
2018-12-03T16:27:42.158Z,10.65
2018-12-03T16:28:42.167Z,10.68
2018-12-03T16:29:42.137Z,10.68
2018-12-03T16:30:42.127Z,10.69
2018-12-03T16:31:42.112Z,10.75
2018-12-03T16:32:42.102Z,10.76
2018-12-03T16:33:42.101Z,10.68
2018-12-03T16:34:42.079Z,10.73
2018-12-03T16:35:42.067Z,10.68
2018-12-03T16:36:42.052Z,10.81
2018-12-03T16:37:42.044Z,10.84
2018-12-03T16:38:42.047Z,10.84
2018-12-03T16:39:42.018Z,10.76
2018-12-03T16:40:42.003Z,10.84
2018-12-03T16:41:41.997Z,10.84
2018-12-03T16:42:41.988Z,10.86
2018-12-03T16:43:41.982Z,10.91
2018-12-03T16:44:41.966Z,10.87
2018-12-03T16:45:41.948Z,10.84
2018-12-03T16:46:41.939Z,10.88
2018-12-03T16:47:41.933Z,10.84
2018-12-03T16:48:41.926Z,10.81
2018-12-03T16:49:41.901Z,10.83
2018-12-03T16:50:41.893Z,10.73
2018-12-03T16:51:41.879Z,10.80
2018-12-03T16:52:41.863Z,10.75
2018-12-03T16:53:41.869Z,10.66
2018-12-03T16:54:41.845Z,10.66
2018-12-03T16:55:41.835Z,10.66
2018-12-03T16:56:41.851Z,10.65
2018-12-03T16:57:41.811Z,10.62
2018-12-03T16:58:41.812Z,10.68
2018-12-03T16:59:41.788Z,10.62
2018-12-03T17:00:41.777Z,10.65
2018-12-03T17:01:41.760Z,10.63
2018-12-03T17:02:41.753Z,10.66
2018-12-03T17:03:41.760Z,10.65
2018-12-03T17:04:41.730Z,10.57
2018-12-03T17:05:41.716Z,10.51
2018-12-03T17:06:41.719Z,10.52
2018-12-03T17:07:41.695Z,10.52
2018-12-03T17:08:41.696Z,10.47
2018-12-03T17:09:41.817Z,10.35
2018-12-03T17:10:41.676Z,10.42
2018-12-03T17:11:41.649Z,10.44
2018-12-03T17:12:41.639Z,10.39
2018-12-03T17:13:41.639Z,10.32
2018-12-03T17:14:41.612Z,10.24
2018-12-03T17:15:41.600Z,10.25
2018-12-03T17:16:41.589Z,10.35
2018-12-03T17:17:41.580Z,10.42
2018-12-03T17:18:41.591Z,10.42
2018-12-03T17:19:41.557Z,10.31
2018-12-03T17:20:41.548Z,10.44
2018-12-03T17:21:41.535Z,10.43
2018-12-03T17:22:41.522Z,10.36
2018-12-03T17:23:41.526Z,10.38
2018-12-03T17:24:41.497Z,10.32
2018-12-03T17:25:41.487Z,10.47
2018-12-03T17:26:41.472Z,10.44
2018-12-03T17:27:41.462Z,10.47
2018-12-03T17:28:41.473Z,10.54
2018-12-03T17:29:41.438Z,10.54
2018-12-03T17:30:41.432Z,10.51
2018-12-03T17:31:41.418Z,10.49
2018-12-03T17:32:41.404Z,10.46
2018-12-03T17:33:41.430Z,10.44
2018-12-03T17:34:41.383Z,10.38
2018-12-03T17:35:41.367Z,10.36
2018-12-03T17:36:41.378Z,10.34
2018-12-03T17:37:42.048Z,10.28
2018-12-03T17:38:42.718Z,10.25
2018-12-03T17:39:41.334Z,10.25
2018-12-03T17:40:41.310Z,10.20
2018-12-03T17:41:41.301Z,10.13
2018-12-03T17:42:41.293Z,10.11
2018-12-03T17:43:41.283Z,10.11
2018-12-03T17:44:41.281Z,10.11
2018-12-03T17:45:41.246Z,10.17
2018-12-03T17:46:41.252Z,10.10
2018-12-03T17:47:41.229Z,10.13
2018-12-03T17:48:41.218Z,10.06
2018-12-03T17:49:41.270Z,10.14
2018-12-03T17:50:42.829Z,10.10
2018-12-03T17:51:42.792Z,10.06
2018-12-03T17:52:41.173Z,9.99
2018-12-03T17:53:41.161Z,9.88
2018-12-03T17:54:41.170Z,9.92
2018-12-03T17:55:41.230Z,9.89
2018-12-03T17:56:41.129Z,9.78
2018-12-03T17:57:41.116Z,9.78
2018-12-03T17:58:41.106Z,9.80
2018-12-03T17:59:41.109Z,9.81
2018-12-03T18:00:41.077Z,9.74
2018-12-03T18:01:41.068Z,9.78
2018-12-03T18:02:41.069Z,9.81
2018-12-03T18:03:42.373Z,9.74
2018-12-03T18:04:42.418Z,9.71